sensor_id;sensor_type;location;lat;lon;timestamp;P1;durP1;ratioP1;P2;durP2;ratioP2
17714;SDS011;8977;50.902;4.314;2023-04-01T00:01:28;8.00;;;1.97;;
17714;SDS011;8977;50.902;4.314;2023-04-01T00:03:55;4.87;;;1.60;;
17714;SDS011;8977;50.902;4.314;2023-04-01T00:06:22;5.97;;;1.97;;
17714;SDS011;8977;50.902;4.314;2023-04-01T00:08:49;6.50;;;1.80;;
17714;SDS011;8977;50.902;4.314;2023-04-01T00:11:17;6.73;;;1.90;;
17714;SDS011;8977;50.902;4.314;2023-04-01T00:13:46;3.67;;;1.47;;
17714;SDS011;8977;50.902;4.314;2023-04-01T00:16:13;4.00;;;1.30;;
17714;SDS011;8977;50.902;4.314;2023-04-01T00:18:40;6.60;;;2.10;;
17714;SDS011;8977;50.902;4.314;2023-04-01T00:21:07;5.90;;;1.50;;
17714;SDS011;8977;50.902;4.314;2023-04-01T00:23:34;3.90;;;1.50;;
17714;SDS011;8977;50.902;4.314;2023-04-01T00:26:01;4.07;;;1.50;;
17714;SDS011;8977;50.902;4.314;2023-04-01T00:28:29;4.70;;;1.53;;
17714;SDS011;8977;50.902;4.314;2023-04-01T00:30:57;3.87;;;1.60;;
17714;SDS011;8977;50.902;4.314;2023-04-01T00:33:24;4.73;;;1.40;;
17714;SDS011;8977;50.902;4.314;2023-04-01T00:35:52;4.13;;;1.50;;
17714;SDS011;8977;50.902;4.314;2023-04-01T00:38:19;4.67;;;1.50;;
17714;SDS011;8977;50.902;4.314;2023-04-01T00:40:46;4.30;;;1.20;;
17714;SDS011;8977;50.902;4.314;2023-04-01T00:43:14;2.27;;;0.90;;
17714;SDS011;8977;50.902;4.314;2023-04-01T00:45:44;2.33;;;1.10;;
17714;SDS011;8977;50.902;4.314;2023-04-01T00:48:15;2.33;;;1.10;;
17714;SDS011;8977;50.902;4.314;2023-04-01T00:50:46;3.80;;;1.40;;
17714;SDS011;8977;50.902;4.314;2023-04-01T00:53:16;2.57;;;1.20;;
17714;SDS011;8977;50.902;4.314;2023-04-01T00:55:46;2.37;;;0.97;;
17714;SDS011;8977;50.902;4.314;2023-04-01T00:58:18;4.27;;;1.40;;
17714;SDS011;8977;50.902;4.314;2023-04-01T01:00:49;4.17;;;1.40;;
17714;SDS011;8977;50.902;4.314;2023-04-01T01:03:18;2.73;;;1.10;;
17714;SDS011;8977;50.902;4.314;2023-04-01T01:05:50;2.73;;;1.30;;
17714;SDS011;8977;50.902;4.314;2023-04-01T01:08:46;4.13;;;1.47;;
17714;SDS011;8977;50.902;4.314;2023-04-01T01:11:27;1.70;;;1.20;;
17714;SDS011;8977;50.902;4.314;2023-04-01T01:14:01;3.20;;;1.27;;
17714;SDS011;8977;50.902;4.314;2023-04-01T01:16:36;4.07;;;1.27;;
17714;SDS011;8977;50.902;4.314;2023-04-01T01:19:14;3.40;;;1.20;;
17714;SDS011;8977;50.902;4.314;2023-04-01T01:22:03;2.30;;;1.00;;
17714;SDS011;8977;50.902;4.314;2023-04-01T01:24:54;2.23;;;1.10;;
17714;SDS011;8977;50.902;4.314;2023-04-01T01:27:31;2.47;;;1.20;;
17714;SDS011;8977;50.902;4.314;2023-04-01T01:33:09;4.90;;;1.67;;
17714;SDS011;8977;50.902;4.314;2023-04-01T01:35:53;5.33;;;1.83;;
17714;SDS011;8977;50.902;4.314;2023-04-01T01:38:22;3.50;;;1.70;;
17714;SDS011;8977;50.902;4.314;2023-04-01T01:40:51;2.73;;;1.70;;
17714;SDS011;8977;50.902;4.314;2023-04-01T01:43:23;5.00;;;2.13;;
17714;SDS011;8977;50.902;4.314;2023-04-01T01:45:53;4.07;;;1.87;;
17714;SDS011;8977;50.902;4.314;2023-04-01T01:48:23;4.00;;;1.80;;
17714;SDS011;8977;50.902;4.314;2023-04-01T01:50:54;3.10;;;1.70;;
17714;SDS011;8977;50.902;4.314;2023-04-01T01:53:21;3.47;;;1.83;;
17714;SDS011;8977;50.902;4.314;2023-04-01T01:55:47;3.27;;;2.07;;
17714;SDS011;8977;50.902;4.314;2023-04-01T01:58:16;4.33;;;1.93;;
17714;SDS011;8977;50.902;4.314;2023-04-01T02:00:46;3.30;;;2.10;;
17714;SDS011;8977;50.902;4.314;2023-04-01T02:03:16;4.53;;;2.20;;
17714;SDS011;8977;50.902;4.314;2023-04-01T02:05:46;1.87;;;1.50;;
17714;SDS011;8977;50.902;4.314;2023-04-01T02:08:18;3.47;;;1.90;;
17714;SDS011;8977;50.902;4.314;2023-04-01T02:10:49;2.50;;;1.70;;
17714;SDS011;8977;50.902;4.314;2023-04-01T02:13:24;2.63;;;2.00;;
17714;SDS011;8977;50.902;4.314;2023-04-01T02:15:56;3.70;;;1.90;;
17714;SDS011;8977;50.902;4.314;2023-04-01T02:18:26;4.73;;;1.97;;
17714;SDS011;8977;50.902;4.314;2023-04-01T02:20:56;3.53;;;2.20;;
17714;SDS011;8977;50.902;4.314;2023-04-01T02:23:26;3.77;;;2.27;;
17714;SDS011;8977;50.902;4.314;2023-04-01T02:25:54;5.77;;;2.40;;
17714;SDS011;8977;50.902;4.314;2023-04-01T02:28:21;3.00;;;2.07;;
17714;SDS011;8977;50.902;4.314;2023-04-01T02:30:49;5.27;;;2.00;;
17714;SDS011;8977;50.902;4.314;2023-04-01T02:33:17;4.70;;;1.80;;
17714;SDS011;8977;50.902;4.314;2023-04-01T02:35:46;2.17;;;1.67;;
17714;SDS011;8977;50.902;4.314;2023-04-01T02:38:13;4.40;;;1.87;;
17714;SDS011;8977;50.902;4.314;2023-04-01T02:40:43;3.63;;;1.60;;
17714;SDS011;8977;50.902;4.314;2023-04-01T02:43:13;3.53;;;2.10;;
17714;SDS011;8977;50.902;4.314;2023-04-01T02:45:41;6.00;;;1.90;;
17714;SDS011;8977;50.902;4.314;2023-04-01T02:48:08;3.67;;;1.77;;
17714;SDS011;8977;50.902;4.314;2023-04-01T02:50:35;5.83;;;1.93;;
17714;SDS011;8977;50.902;4.314;2023-04-01T02:53:01;4.63;;;1.83;;
17714;SDS011;8977;50.902;4.314;2023-04-01T02:55:31;6.10;;;2.47;;
17714;SDS011;8977;50.902;4.314;2023-04-01T02:57:59;4.50;;;2.07;;
17714;SDS011;8977;50.902;4.314;2023-04-01T03:00:26;5.07;;;2.10;;
17714;SDS011;8977;50.902;4.314;2023-04-01T03:02:53;4.43;;;2.50;;
17714;SDS011;8977;50.902;4.314;2023-04-01T03:05:21;5.30;;;2.20;;
17714;SDS011;8977;50.902;4.314;2023-04-01T03:07:48;5.03;;;2.47;;
17714;SDS011;8977;50.902;4.314;2023-04-01T03:10:15;5.50;;;2.43;;
17714;SDS011;8977;50.902;4.314;2023-04-01T03:12:42;6.23;;;3.23;;
17714;SDS011;8977;50.902;4.314;2023-04-01T03:15:11;6.33;;;2.50;;
17714;SDS011;8977;50.902;4.314;2023-04-01T03:17:39;5.77;;;2.73;;
17714;SDS011;8977;50.902;4.314;2023-04-01T03:20:07;4.47;;;2.87;;
17714;SDS011;8977;50.902;4.314;2023-04-01T03:22:35;6.20;;;2.57;;
17714;SDS011;8977;50.902;4.314;2023-04-01T03:25:03;6.03;;;3.07;;
17714;SDS011;8977;50.902;4.314;2023-04-01T03:27:30;7.70;;;3.43;;
17714;SDS011;8977;50.902;4.314;2023-04-01T03:29:57;6.07;;;4.00;;
17714;SDS011;8977;50.902;4.314;2023-04-01T03:32:25;5.40;;;3.60;;
17714;SDS011;8977;50.902;4.314;2023-04-01T03:34:52;9.40;;;4.17;;
17714;SDS011;8977;50.902;4.314;2023-04-01T03:37:19;7.17;;;3.70;;
17714;SDS011;8977;50.902;4.314;2023-04-01T03:39:46;9.00;;;4.07;;
17714;SDS011;8977;50.902;4.314;2023-04-01T03:42:13;8.07;;;4.00;;
17714;SDS011;8977;50.902;4.314;2023-04-01T03:44:40;7.30;;;4.03;;
17714;SDS011;8977;50.902;4.314;2023-04-01T03:47:07;10.67;;;3.90;;
17714;SDS011;8977;50.902;4.314;2023-04-01T03:49:36;8.23;;;3.93;;
17714;SDS011;8977;50.902;4.314;2023-04-01T03:52:03;10.17;;;3.83;;
17714;SDS011;8977;50.902;4.314;2023-04-01T03:54:30;9.37;;;4.23;;
17714;SDS011;8977;50.902;4.314;2023-04-01T03:56:57;8.07;;;4.40;;
17714;SDS011;8977;50.902;4.314;2023-04-01T03:59:24;7.63;;;4.20;;
17714;SDS011;8977;50.902;4.314;2023-04-01T04:01:51;6.63;;;4.27;;
17714;SDS011;8977;50.902;4.314;2023-04-01T04:04:17;8.60;;;4.10;;
17714;SDS011;8977;50.902;4.314;2023-04-01T04:06:46;7.83;;;4.03;;
17714;SDS011;8977;50.902;4.314;2023-04-01T04:09:13;6.73;;;3.93;;
17714;SDS011;8977;50.902;4.314;2023-04-01T04:11:40;7.83;;;4.13;;
17714;SDS011;8977;50.902;4.314;2023-04-01T04:14:07;7.50;;;3.57;;
17714;SDS011;8977;50.902;4.314;2023-04-01T04:16:34;6.97;;;3.20;;
17714;SDS011;8977;50.902;4.314;2023-04-01T04:19:02;9.00;;;3.40;;
17714;SDS011;8977;50.902;4.314;2023-04-01T04:21:29;5.00;;;3.13;;
17714;SDS011;8977;50.902;4.314;2023-04-01T04:23:59;3.77;;;2.93;;
17714;SDS011;8977;50.902;4.314;2023-04-01T04:26:26;3.33;;;2.90;;
17714;SDS011;8977;50.902;4.314;2023-04-01T04:28:53;4.07;;;2.43;;
17714;SDS011;8977;50.902;4.314;2023-04-01T04:31:21;5.07;;;2.60;;
17714;SDS011;8977;50.902;4.314;2023-04-01T04:33:49;4.33;;;2.60;;
17714;SDS011;8977;50.902;4.314;2023-04-01T04:36:16;3.53;;;2.40;;
17714;SDS011;8977;50.902;4.314;2023-04-01T04:38:43;4.67;;;2.33;;
17714;SDS011;8977;50.902;4.314;2023-04-01T04:41:11;4.17;;;2.03;;
17714;SDS011;8977;50.902;4.314;2023-04-01T04:43:39;3.47;;;2.07;;
17714;SDS011;8977;50.902;4.314;2023-04-01T04:46:06;2.50;;;1.83;;
17714;SDS011;8977;50.902;4.314;2023-04-01T04:48:33;2.03;;;1.70;;
17714;SDS011;8977;50.902;4.314;2023-04-01T04:51:00;2.60;;;1.97;;
17714;SDS011;8977;50.902;4.314;2023-04-01T04:53:27;2.67;;;1.80;;
17714;SDS011;8977;50.902;4.314;2023-04-01T04:55:54;2.03;;;1.83;;
17714;SDS011;8977;50.902;4.314;2023-04-01T04:58:22;2.10;;;1.80;;
17714;SDS011;8977;50.902;4.314;2023-04-01T05:00:49;1.63;;;1.53;;
17714;SDS011;8977;50.902;4.314;2023-04-01T05:03:16;1.77;;;1.60;;
17714;SDS011;8977;50.902;4.314;2023-04-01T05:05:47;1.60;;;1.50;;
17714;SDS011;8977;50.902;4.314;2023-04-01T05:08:16;1.77;;;1.63;;
17714;SDS011;8977;50.902;4.314;2023-04-01T05:10:42;2.20;;;1.50;;
17714;SDS011;8977;50.902;4.314;2023-04-01T05:13:09;1.87;;;1.30;;
17714;SDS011;8977;50.902;4.314;2023-04-01T05:15:38;2.33;;;1.70;;
17714;SDS011;8977;50.902;4.314;2023-04-01T05:18:05;2.47;;;1.80;;
17714;SDS011;8977;50.902;4.314;2023-04-01T05:20:31;1.70;;;1.60;;
17714;SDS011;8977;50.902;4.314;2023-04-01T05:22:58;1.87;;;1.63;;
17714;SDS011;8977;50.902;4.314;2023-04-01T05:25:26;2.30;;;1.63;;
17714;SDS011;8977;50.902;4.314;2023-04-01T05:27:53;3.13;;;2.20;;
17714;SDS011;8977;50.902;4.314;2023-04-01T05:30:20;3.67;;;2.77;;
17714;SDS011;8977;50.902;4.314;2023-04-01T05:32:48;2.77;;;2.57;;
17714;SDS011;8977;50.902;4.314;2023-04-01T05:35:15;3.60;;;2.80;;
17714;SDS011;8977;50.902;4.314;2023-04-01T05:37:42;3.70;;;2.63;;
17714;SDS011;8977;50.902;4.314;2023-04-01T05:40:09;3.53;;;3.20;;
17714;SDS011;8977;50.902;4.314;2023-04-01T05:42:36;5.63;;;3.27;;
17714;SDS011;8977;50.902;4.314;2023-04-01T05:45:03;3.90;;;3.33;;
17714;SDS011;8977;50.902;4.314;2023-04-01T05:47:31;6.07;;;3.97;;
17714;SDS011;8977;50.902;4.314;2023-04-01T05:49:59;3.97;;;3.20;;
17714;SDS011;8977;50.902;4.314;2023-04-01T05:52:26;5.40;;;3.73;;
17714;SDS011;8977;50.902;4.314;2023-04-01T05:54:53;5.23;;;3.97;;
17714;SDS011;8977;50.902;4.314;2023-04-01T05:57:19;5.40;;;3.40;;
17714;SDS011;8977;50.902;4.314;2023-04-01T05:59:46;4.37;;;3.30;;
17714;SDS011;8977;50.902;4.314;2023-04-01T06:02:13;6.60;;;4.20;;
17714;SDS011;8977;50.902;4.314;2023-04-01T06:04:44;5.47;;;4.57;;
17714;SDS011;8977;50.902;4.314;2023-04-01T06:07:12;6.90;;;4.70;;
17714;SDS011;8977;50.902;4.314;2023-04-01T06:09:40;5.37;;;3.90;;
17714;SDS011;8977;50.902;4.314;2023-04-01T06:12:13;6.57;;;4.23;;
17714;SDS011;8977;50.902;4.314;2023-04-01T06:14:58;5.40;;;3.53;;
17714;SDS011;8977;50.902;4.314;2023-04-01T06:17:41;7.37;;;4.47;;
17714;SDS011;8977;50.902;4.314;2023-04-01T06:20:19;6.20;;;4.10;;
17714;SDS011;8977;50.902;4.314;2023-04-01T06:23:04;4.83;;;3.90;;
17714;SDS011;8977;50.902;4.314;2023-04-01T06:25:48;6.10;;;4.30;;
17714;SDS011;8977;50.902;4.314;2023-04-01T06:28:36;7.40;;;4.50;;
17714;SDS011;8977;50.902;4.314;2023-04-01T06:31:16;7.30;;;5.37;;
17714;SDS011;8977;50.902;4.314;2023-04-01T06:34:05;6.50;;;4.40;;
17714;SDS011;8977;50.902;4.314;2023-04-01T06:36:47;7.67;;;4.73;;
17714;SDS011;8977;50.902;4.314;2023-04-01T06:39:29;5.77;;;4.10;;
17714;SDS011;8977;50.902;4.314;2023-04-01T06:42:11;6.93;;;4.13;;
17714;SDS011;8977;50.902;4.314;2023-04-01T06:44:51;7.33;;;4.07;;
17714;SDS011;8977;50.902;4.314;2023-04-01T06:47:29;5.70;;;4.17;;
17714;SDS011;8977;50.902;4.314;2023-04-01T06:50:05;5.40;;;3.83;;
17714;SDS011;8977;50.902;4.314;2023-04-01T06:52:39;4.70;;;4.03;;
17714;SDS011;8977;50.902;4.314;2023-04-01T06:55:26;5.90;;;3.97;;
17714;SDS011;8977;50.902;4.314;2023-04-01T06:57:58;6.53;;;4.10;;
17714;SDS011;8977;50.902;4.314;2023-04-01T07:00:27;5.40;;;4.50;;
17714;SDS011;8977;50.902;4.314;2023-04-01T07:03:00;6.27;;;4.00;;
17714;SDS011;8977;50.902;4.314;2023-04-01T07:05:33;6.77;;;4.30;;
17714;SDS011;8977;50.902;4.314;2023-04-01T07:08:01;5.13;;;3.57;;
17714;SDS011;8977;50.902;4.314;2023-04-01T07:10:34;5.50;;;4.03;;
17714;SDS011;8977;50.902;4.314;2023-04-01T07:13:10;4.73;;;4.10;;
17714;SDS011;8977;50.902;4.314;2023-04-01T07:15:42;3.80;;;2.80;;
17714;SDS011;8977;50.902;4.314;2023-04-01T07:18:13;3.37;;;2.30;;
17714;SDS011;8977;50.902;4.314;2023-04-01T07:20:43;3.60;;;1.80;;
17714;SDS011;8977;50.902;4.314;2023-04-01T07:23:15;1.83;;;1.73;;
17714;SDS011;8977;50.902;4.314;2023-04-01T07:25:51;2.23;;;1.50;;
17714;SDS011;8977;50.902;4.314;2023-04-01T07:28:20;1.60;;;1.50;;
17714;SDS011;8977;50.902;4.314;2023-04-01T07:30:51;2.70;;;1.40;;
17714;SDS011;8977;50.902;4.314;2023-04-01T07:33:26;1.20;;;1.07;;
17714;SDS011;8977;50.902;4.314;2023-04-01T07:36:01;1.17;;;0.87;;
17714;SDS011;8977;50.902;4.314;2023-04-01T07:38:33;0.97;;;0.50;;
17714;SDS011;8977;50.902;4.314;2023-04-01T07:41:12;1.67;;;0.67;;
17714;SDS011;8977;50.902;4.314;2023-04-01T07:43:52;0.73;;;0.70;;
17714;SDS011;8977;50.902;4.314;2023-04-01T07:46:36;0.50;;;0.50;;
17714;SDS011;8977;50.902;4.314;2023-04-01T07:49:26;0.60;;;0.60;;
17714;SDS011;8977;50.902;4.314;2023-04-01T07:52:00;0.83;;;0.63;;
17714;SDS011;8977;50.902;4.314;2023-04-01T07:54:33;1.33;;;0.60;;
17714;SDS011;8977;50.902;4.314;2023-04-01T07:57:08;1.03;;;0.97;;
17714;SDS011;8977;50.902;4.314;2023-04-01T07:59:44;0.83;;;0.83;;
17714;SDS011;8977;50.902;4.314;2023-04-01T08:02:25;1.00;;;0.90;;
17714;SDS011;8977;50.902;4.314;2023-04-01T08:05:02;1.20;;;1.10;;
17714;SDS011;8977;50.902;4.314;2023-04-01T08:07:36;2.40;;;1.00;;
17714;SDS011;8977;50.902;4.314;2023-04-01T08:10:11;1.13;;;1.00;;
17714;SDS011;8977;50.902;4.314;2023-04-01T08:12:47;1.47;;;0.73;;
17714;SDS011;8977;50.902;4.314;2023-04-01T08:15:26;1.37;;;0.80;;
17714;SDS011;8977;50.902;4.314;2023-04-01T08:18:00;0.87;;;0.80;;
17714;SDS011;8977;50.902;4.314;2023-04-01T08:20:33;0.97;;;0.70;;
17714;SDS011;8977;50.902;4.314;2023-04-01T08:23:05;1.13;;;0.83;;
17714;SDS011;8977;50.902;4.314;2023-04-01T08:25:37;1.17;;;0.97;;
17714;SDS011;8977;50.902;4.314;2023-04-01T08:28:12;0.80;;;0.80;;
17714;SDS011;8977;50.902;4.314;2023-04-01T08:30:44;1.00;;;0.90;;
17714;SDS011;8977;50.902;4.314;2023-04-01T08:33:15;1.00;;;0.77;;
17714;SDS011;8977;50.902;4.314;2023-04-01T08:35:46;1.87;;;1.40;;
17714;SDS011;8977;50.902;4.314;2023-04-01T08:38:18;1.27;;;1.10;;
17714;SDS011;8977;50.902;4.314;2023-04-01T08:40:55;1.63;;;1.10;;
17714;SDS011;8977;50.902;4.314;2023-04-01T08:46:26;0.93;;;0.93;;
17714;SDS011;8977;50.902;4.314;2023-04-01T08:49:16;0.93;;;0.90;;
17714;SDS011;8977;50.902;4.314;2023-04-01T08:52:07;1.23;;;1.00;;
17714;SDS011;8977;50.902;4.314;2023-04-01T08:55:04;0.80;;;0.80;;
17714;SDS011;8977;50.902;4.314;2023-04-01T08:58:03;1.37;;;0.90;;
17714;SDS011;8977;50.902;4.314;2023-04-01T09:00:53;0.97;;;0.87;;
17714;SDS011;8977;50.902;4.314;2023-04-01T09:06:29;0.90;;;0.90;;
17714;SDS011;8977;50.902;4.314;2023-04-01T09:12:08;3.53;;;1.30;;
17714;SDS011;8977;50.902;4.314;2023-04-01T09:15:07;1.43;;;1.30;;
17714;SDS011;8977;50.902;4.314;2023-04-01T09:23:47;1.57;;;1.40;;
17714;SDS011;8977;50.902;4.314;2023-04-01T09:26:43;3.33;;;1.70;;
17714;SDS011;8977;50.902;4.314;2023-04-01T09:29:26;1.63;;;1.40;;
17714;SDS011;8977;50.902;4.314;2023-04-01T09:32:11;2.10;;;1.80;;
17714;SDS011;8977;50.902;4.314;2023-04-01T09:34:53;2.83;;;2.10;;
17714;SDS011;8977;50.902;4.314;2023-04-01T09:37:21;2.17;;;1.70;;
17714;SDS011;8977;50.902;4.314;2023-04-01T09:43:01;1.90;;;1.80;;
17714;SDS011;8977;50.902;4.314;2023-04-01T09:45:43;2.60;;;1.83;;
17714;SDS011;8977;50.902;4.314;2023-04-01T09:48:25;3.13;;;2.40;;
17714;SDS011;8977;50.902;4.314;2023-04-01T09:51:15;2.87;;;2.10;;
17714;SDS011;8977;50.902;4.314;2023-04-01T09:53:57;2.93;;;2.27;;
17714;SDS011;8977;50.902;4.314;2023-04-01T09:59:49;2.00;;;1.80;;
17714;SDS011;8977;50.902;4.314;2023-04-01T10:05:50;2.40;;;2.17;;
17714;SDS011;8977;50.902;4.314;2023-04-01T10:09:10;3.27;;;2.37;;
17714;SDS011;8977;50.902;4.314;2023-04-01T10:14:55;2.97;;;2.17;;
17714;SDS011;8977;50.902;4.314;2023-04-01T10:20:59;2.37;;;1.97;;
17714;SDS011;8977;50.902;4.314;2023-04-01T10:23:41;2.35;;;1.92;;
17714;SDS011;8977;50.902;4.314;2023-04-01T10:29:39;2.07;;;1.70;;
17714;SDS011;8977;50.902;4.314;2023-04-01T10:35:47;1.60;;;1.40;;
17714;SDS011;8977;50.902;4.314;2023-04-01T10:41:50;1.70;;;1.00;;
17714;SDS011;8977;50.902;4.314;2023-04-01T10:44:46;1.53;;;1.10;;
17714;SDS011;8977;50.902;4.314;2023-04-01T10:53:56;1.10;;;0.80;;
17714;SDS011;8977;50.902;4.314;2023-04-01T10:56:42;1.90;;;0.93;;
17714;SDS011;8977;50.902;4.314;2023-04-01T11:08:38;0.90;;;0.60;;
17714;SDS011;8977;50.902;4.314;2023-04-01T11:18:00;0.90;;;0.90;;
17714;SDS011;8977;50.902;4.314;2023-04-01T11:23:54;0.83;;;0.83;;
17714;SDS011;8977;50.902;4.314;2023-04-01T11:26:39;1.27;;;0.90;;
17714;SDS011;8977;50.902;4.314;2023-04-01T11:29:25;1.60;;;0.80;;
17714;SDS011;8977;50.902;4.314;2023-04-01T11:32:19;1.87;;;1.40;;
17714;SDS011;8977;50.902;4.314;2023-04-01T11:34:57;1.97;;;1.00;;
17714;SDS011;8977;50.902;4.314;2023-04-01T11:37:39;0.90;;;0.90;;
17714;SDS011;8977;50.902;4.314;2023-04-01T11:40:14;2.47;;;1.10;;
17714;SDS011;8977;50.902;4.314;2023-04-01T11:42:51;1.57;;;1.00;;
17714;SDS011;8977;50.902;4.314;2023-04-01T11:45:29;1.67;;;1.20;;
17714;SDS011;8977;50.902;4.314;2023-04-01T11:54:00;2.17;;;1.20;;
17714;SDS011;8977;50.902;4.314;2023-04-01T11:56:49;3.10;;;1.10;;
17714;SDS011;8977;50.902;4.314;2023-04-01T12:02:25;1.20;;;1.10;;
17714;SDS011;8977;50.902;4.314;2023-04-01T12:05:03;1.77;;;1.20;;
17714;SDS011;8977;50.902;4.314;2023-04-01T12:08:01;1.17;;;1.07;;
17714;SDS011;8977;50.902;4.314;2023-04-01T12:10:38;2.70;;;1.40;;
17714;SDS011;8977;50.902;4.314;2023-04-01T12:13:11;0.97;;;0.97;;
17714;SDS011;8977;50.902;4.314;2023-04-01T12:15:50;2.70;;;1.37;;
17714;SDS011;8977;50.902;4.314;2023-04-01T12:18:33;1.50;;;1.20;;
17714;SDS011;8977;50.902;4.314;2023-04-01T12:21:08;1.83;;;1.27;;
17714;SDS011;8977;50.902;4.314;2023-04-01T12:23:51;1.33;;;1.23;;
17714;SDS011;8977;50.902;4.314;2023-04-01T12:26:47;1.20;;;1.10;;
17714;SDS011;8977;50.902;4.314;2023-04-01T12:29:36;2.37;;;1.27;;
17714;SDS011;8977;50.902;4.314;2023-04-01T12:32:17;1.57;;;1.47;;
17714;SDS011;8977;50.902;4.314;2023-04-01T12:34:58;2.63;;;1.67;;
17714;SDS011;8977;50.902;4.314;2023-04-01T12:37:41;2.13;;;1.70;;
17714;SDS011;8977;50.902;4.314;2023-04-01T12:40:20;1.80;;;1.30;;
17714;SDS011;8977;50.902;4.314;2023-04-01T12:42:59;1.67;;;1.50;;
17714;SDS011;8977;50.902;4.314;2023-04-01T12:45:37;1.43;;;1.33;;
17714;SDS011;8977;50.902;4.314;2023-04-01T12:57:41;1.27;;;1.17;;
17714;SDS011;8977;50.902;4.314;2023-04-01T13:00:35;1.77;;;1.53;;
17714;SDS011;8977;50.902;4.314;2023-04-01T13:03:17;2.33;;;1.50;;
17714;SDS011;8977;50.902;4.314;2023-04-01T13:09:09;2.23;;;1.20;;
17714;SDS011;8977;50.902;4.314;2023-04-01T13:11:46;3.87;;;1.53;;
17714;SDS011;8977;50.902;4.314;2023-04-01T13:14:50;2.50;;;1.60;;
17714;SDS011;8977;50.902;4.314;2023-04-01T13:17:42;1.30;;;1.20;;
17714;SDS011;8977;50.902;4.314;2023-04-01T13:20:20;1.63;;;1.30;;
17714;SDS011;8977;50.902;4.314;2023-04-01T13:23:02;1.23;;;1.00;;
17714;SDS011;8977;50.902;4.314;2023-04-01T13:25:39;1.30;;;1.20;;
17714;SDS011;8977;50.902;4.314;2023-04-01T13:28:13;0.90;;;0.90;;
17714;SDS011;8977;50.902;4.314;2023-04-01T13:30:45;2.03;;;0.90;;
17714;SDS011;8977;50.902;4.314;2023-04-01T13:33:19;1.30;;;0.90;;
17714;SDS011;8977;50.902;4.314;2023-04-01T13:35:56;1.03;;;1.03;;
17714;SDS011;8977;50.902;4.314;2023-04-01T13:38:48;1.03;;;1.03;;
17714;SDS011;8977;50.902;4.314;2023-04-01T13:41:38;1.87;;;1.27;;
17714;SDS011;8977;50.902;4.314;2023-04-01T13:44:22;2.20;;;1.30;;
17714;SDS011;8977;50.902;4.314;2023-04-01T13:47:03;1.63;;;1.10;;
17714;SDS011;8977;50.902;4.314;2023-04-01T13:49:54;1.93;;;1.03;;
17714;SDS011;8977;50.902;4.314;2023-04-01T13:52:38;1.30;;;1.20;;
17714;SDS011;8977;50.902;4.314;2023-04-01T13:55:26;0.97;;;0.97;;
17714;SDS011;8977;50.902;4.314;2023-04-01T13:58:16;1.87;;;1.10;;
17714;SDS011;8977;50.902;4.314;2023-04-01T14:00:53;1.60;;;1.20;;
17714;SDS011;8977;50.902;4.314;2023-04-01T14:03:30;1.37;;;1.27;;
17714;SDS011;8977;50.902;4.314;2023-04-01T14:06:08;1.47;;;1.23;;
17714;SDS011;8977;50.902;4.314;2023-04-01T14:11:39;2.17;;;1.30;;
17714;SDS011;8977;50.902;4.314;2023-04-01T14:14:14;1.40;;;1.30;;
17714;SDS011;8977;50.902;4.314;2023-04-01T14:17:06;1.50;;;1.40;;
17714;SDS011;8977;50.902;4.314;2023-04-01T14:19:58;2.10;;;1.43;;
17714;SDS011;8977;50.902;4.314;2023-04-01T14:22:50;2.30;;;1.63;;
17714;SDS011;8977;50.902;4.314;2023-04-01T14:28:23;1.50;;;1.40;;
17714;SDS011;8977;50.902;4.314;2023-04-01T14:33:56;1.77;;;1.30;;
17714;SDS011;8977;50.902;4.314;2023-04-01T14:36:48;2.13;;;1.10;;
17714;SDS011;8977;50.902;4.314;2023-04-01T14:42:23;3.27;;;1.30;;
17714;SDS011;8977;50.902;4.314;2023-04-01T14:45:31;1.87;;;1.20;;
17714;SDS011;8977;50.902;4.314;2023-04-01T14:48:25;0.90;;;0.90;;
17714;SDS011;8977;50.902;4.314;2023-04-01T14:50:57;2.10;;;1.33;;
17714;SDS011;8977;50.902;4.314;2023-04-01T14:53:35;1.13;;;1.00;;
17714;SDS011;8977;50.902;4.314;2023-04-01T14:56:08;1.40;;;1.30;;
17714;SDS011;8977;50.902;4.314;2023-04-01T14:58:42;2.00;;;1.10;;
17714;SDS011;8977;50.902;4.314;2023-04-01T15:01:13;1.53;;;1.20;;
17714;SDS011;8977;50.902;4.314;2023-04-01T15:03:53;2.03;;;1.50;;
17714;SDS011;8977;50.902;4.314;2023-04-01T15:06:34;2.43;;;1.70;;
17714;SDS011;8977;50.902;4.314;2023-04-01T15:09:14;1.23;;;1.10;;
17714;SDS011;8977;50.902;4.314;2023-04-01T15:11:51;1.53;;;1.40;;
17714;SDS011;8977;50.902;4.314;2023-04-01T15:14:39;1.50;;;1.40;;
17714;SDS011;8977;50.902;4.314;2023-04-01T15:17:21;1.53;;;1.40;;
17714;SDS011;8977;50.902;4.314;2023-04-01T15:20:07;1.53;;;1.43;;
17714;SDS011;8977;50.902;4.314;2023-04-01T15:22:52;1.40;;;1.30;;
17714;SDS011;8977;50.902;4.314;2023-04-01T15:25:43;1.53;;;1.43;;
17714;SDS011;8977;50.902;4.314;2023-04-01T15:28:21;2.00;;;1.40;;
17714;SDS011;8977;50.902;4.314;2023-04-01T15:30:56;1.70;;;1.27;;
17714;SDS011;8977;50.902;4.314;2023-04-01T15:33:39;2.73;;;1.33;;
17714;SDS011;8977;50.902;4.314;2023-04-01T15:36:19;1.93;;;1.03;;
17714;SDS011;8977;50.902;4.314;2023-04-01T15:39:01;1.33;;;0.97;;
17714;SDS011;8977;50.902;4.314;2023-04-01T15:41:39;2.03;;;1.00;;
17714;SDS011;8977;50.902;4.314;2023-04-01T15:44:34;1.57;;;0.93;;
17714;SDS011;8977;50.902;4.314;2023-04-01T15:47:18;1.30;;;0.90;;
17714;SDS011;8977;50.902;4.314;2023-04-01T15:50:01;1.13;;;0.90;;
17714;SDS011;8977;50.902;4.314;2023-04-01T15:52:48;1.70;;;0.80;;
17714;SDS011;8977;50.902;4.314;2023-04-01T15:55:24;1.80;;;1.03;;
17714;SDS011;8977;50.902;4.314;2023-04-01T16:00:53;0.70;;;0.70;;
17714;SDS011;8977;50.902;4.314;2023-04-01T16:03:33;1.40;;;1.00;;
17714;SDS011;8977;50.902;4.314;2023-04-01T16:06:10;2.20;;;1.00;;
17714;SDS011;8977;50.902;4.314;2023-04-01T16:11:56;1.17;;;0.93;;
17714;SDS011;8977;50.902;4.314;2023-04-01T16:14:33;1.17;;;0.80;;
17714;SDS011;8977;50.902;4.314;2023-04-01T16:17:15;1.40;;;1.10;;
17714;SDS011;8977;50.902;4.314;2023-04-01T16:19:53;1.00;;;0.90;;
17714;SDS011;8977;50.902;4.314;2023-04-01T16:22:25;1.83;;;1.20;;
17714;SDS011;8977;50.902;4.314;2023-04-01T16:24:59;1.30;;;1.20;;
17714;SDS011;8977;50.902;4.314;2023-04-01T16:27:44;1.37;;;1.10;;
17714;SDS011;8977;50.902;4.314;2023-04-01T16:30:23;1.43;;;1.33;;
17714;SDS011;8977;50.902;4.314;2023-04-01T16:33:02;1.83;;;1.43;;
17714;SDS011;8977;50.902;4.314;2023-04-01T16:35:38;1.50;;;1.40;;
17714;SDS011;8977;50.902;4.314;2023-04-01T16:38:12;1.97;;;1.60;;
17714;SDS011;8977;50.902;4.314;2023-04-01T16:40:46;1.63;;;1.50;;
17714;SDS011;8977;50.902;4.314;2023-04-01T16:43:20;1.57;;;1.47;;
17714;SDS011;8977;50.902;4.314;2023-04-01T16:45:54;3.67;;;1.53;;
17714;SDS011;8977;50.902;4.314;2023-04-01T16:48:45;1.60;;;1.50;;
17714;SDS011;8977;50.902;4.314;2023-04-01T16:51:20;2.00;;;1.73;;
17714;SDS011;8977;50.902;4.314;2023-04-01T16:53:50;1.40;;;1.30;;
17714;SDS011;8977;50.902;4.314;2023-04-01T16:56:31;1.60;;;1.50;;
17714;SDS011;8977;50.902;4.314;2023-04-01T16:59:07;2.03;;;1.50;;
17714;SDS011;8977;50.902;4.314;2023-04-01T17:01:43;2.50;;;1.60;;
17714;SDS011;8977;50.902;4.314;2023-04-01T17:04:19;1.50;;;1.40;;
17714;SDS011;8977;50.902;4.314;2023-04-01T17:06:55;1.40;;;1.30;;
17714;SDS011;8977;50.902;4.314;2023-04-01T17:09:39;1.30;;;1.20;;
17714;SDS011;8977;50.902;4.314;2023-04-01T17:12:20;3.10;;;1.60;;
17714;SDS011;8977;50.902;4.314;2023-04-01T17:14:54;1.93;;;1.30;;
17714;SDS011;8977;50.902;4.314;2023-04-01T17:17:35;1.47;;;1.37;;
17714;SDS011;8977;50.902;4.314;2023-04-01T17:20:24;2.13;;;1.70;;
17714;SDS011;8977;50.902;4.314;2023-04-01T17:23:00;1.73;;;1.60;;
17714;SDS011;8977;50.902;4.314;2023-04-01T17:25:37;2.93;;;1.53;;
17714;SDS011;8977;50.902;4.314;2023-04-01T17:28:17;1.67;;;1.53;;
17714;SDS011;8977;50.902;4.314;2023-04-01T17:30:55;1.53;;;1.40;;
17714;SDS011;8977;50.902;4.314;2023-04-01T17:36:25;1.30;;;1.20;;
17714;SDS011;8977;50.902;4.314;2023-04-01T17:39:04;1.90;;;1.50;;
17714;SDS011;8977;50.902;4.314;2023-04-01T17:41:46;1.37;;;1.27;;
17714;SDS011;8977;50.902;4.314;2023-04-01T17:44:23;1.60;;;1.50;;